Time;durP1;ratioP1;P1;durP2;ratioP2;P2;SDS_P1;SDS_P2;PMS_P1;PMS_P2;Temp;Humidity;BMP_temperature;BMP_pressure;BME280_temperature;BME280_humidity;BME280_pressure;Samples;Min_cycle;Max_cycle;Signal;HPM_P1;HPM_P2
2022/11/12 00:00:25;;;;;;;24.05;17.55;;;;;;;6.50;100.00;102938.47;5014054;28;20025;-71
2022/11/12 00:02:50;;;;;;;23.63;17.63;;;;;;;6.49;100.00;102933.22;5016381;28;20046;-71
2022/11/12 00:05:15;;;;;;;29.05;18.20;;;;;;;6.48;100.00;102945.00;5035633;28;20112;-71
2022/11/12 00:07:41;;;;;;;24.63;17.60;;;;;;;6.48;100.00;102942.31;5035712;28;20021;-71
2022/11/12 00:10:06;;;;;;;24.85;17.98;;;;;;;6.46;100.00;102944.28;5035771;28;20108;-71
2022/11/12 00:12:32;;;;;;;23.88;17.73;;;;;;;6.49;100.00;102950.22;5032021;28;20534;-71
2022/11/12 00:14:57;;;;;;;23.85;18.67;;;;;;;6.42;100.00;102951.81;5034876;28;20025;-71
2022/11/12 00:17:22;;;;;;;26.45;18.33;;;;;;;6.42;100.00;102948.28;5035175;28;20106;-71
2022/11/12 00:19:48;;;;;;;24.88;18.30;;;;;;;6.39;100.00;102950.25;5035580;28;20017;-70
2022/11/12 00:22:13;;;;;;;25.98;17.90;;;;;;;6.41;100.00;102946.56;5029541;28;20375;-71
2022/11/12 00:24:39;;;;;;;24.67;17.88;;;;;;;6.41;100.00;102947.41;5034226;28;20025;-71
2022/11/12 00:27:04;;;;;;;24.55;17.90;;;;;;;6.37;100.00;102949.56;5035690;28;20025;-71
2022/11/12 00:29:29;;;;;;;24.02;17.52;;;;;;;6.39;100.00;102955.63;5035378;28;20053;-71
2022/11/12 00:31:54;;;;;;;25.85;18.13;;;;;;;6.40;100.00;102964.53;5028589;28;20050;-75
2022/11/12 00:34:20;;;;;;;24.15;17.45;;;;;;;6.37;100.00;102965.69;5035226;28;20026;-75
2022/11/12 00:36:45;;;;;;;36.03;18.02;;;;;;;6.31;100.00;102960.88;5035205;28;20021;-72
2022/11/12 00:39:10;;;;;;;24.55;18.50;;;;;;;6.33;100.00;102961.59;5035047;28;20029;-72
2022/11/12 00:41:36;;;;;;;26.10;18.05;;;;;;;6.34;100.00;102965.13;5031371;28;20032;-71
2022/11/12 00:44:01;;;;;;;24.63;17.60;;;;;;;6.31;100.00;102958.19;5034765;28;20047;-71
2022/11/12 00:46:26;;;;;;;30.38;18.52;;;;;;;6.30;100.00;102959.19;5034811;28;20033;-71
2022/11/12 00:48:51;;;;;;;25.20;18.08;;;;;;;6.26;100.00;102943.50;5034965;28;20021;-70
2022/11/12 00:51:17;;;;;;;26.63;18.17;;;;;;;6.26;100.00;102949.69;5033867;28;20087;-70
2022/11/12 00:53:42;;;;;;;25.00;18.25;;;;;;;6.27;100.00;102945.19;5032216;28;20108;-71
2022/11/12 00:56:08;;;;;;;25.55;17.95;;;;;;;6.27;100.00;102953.25;5034818;28;20036;-71
2022/11/12 00:58:35;;;;;;;24.88;17.98;;;;;;;6.31;100.00;102949.28;5034605;28;20021;-71
2022/11/12 01:01:07;;;;;;;24.17;17.80;;;;;;;6.30;100.00;102953.81;5032223;28;20032;-70
2022/11/12 01:03:32;;;;;;;23.73;17.65;;;;;;;6.26;100.00;102949.69;5014984;28;20034;-71
2022/11/12 01:06:05;;;;;;;24.33;17.73;;;;;;;6.28;100.00;102945.06;5014872;28;20147;-71
2022/11/12 01:08:31;;;;;;;25.67;17.98;;;;;;;6.21;100.00;102952.00;5014148;28;20025;-71
2022/11/12 01:11:17;;;;;;;25.70;18.15;;;;;;;6.22;100.00;102945.63;5014789;28;20032;-71
2022/11/12 01:13:44;;;;;;;29.05;18.20;;;;;;;6.24;100.00;102945.50;5033772;28;20358;-71
2022/11/12 01:16:16;;;;;;;25.00;17.35;;;;;;;6.24;100.00;102940.09;5034421;28;20033;-70
2022/11/12 01:18:42;;;;;;;26.33;18.00;;;;;;;6.23;100.00;102943.78;5034256;28;20026;-70
2022/11/12 01:21:08;;;;;;;22.73;17.05;;;;;;;6.25;100.00;102937.28;5034505;28;20041;-71
2022/11/12 01:23:36;;;;;;;23.20;17.55;;;;;;;6.29;100.00;102937.81;5014469;28;20037;-71
2022/11/12 01:26:14;;;;;;;26.85;18.17;;;;;;;6.29;100.00;102946.72;5014397;28;20025;-71
2022/11/12 01:28:40;;;;;;;26.33;17.30;;;;;;;6.24;100.00;102943.63;5014175;28;20029;-71
2022/11/12 01:31:18;;;;;;;24.75;17.92;;;;;;;6.26;100.00;102935.41;5014000;28;20421;-71
2022/11/12 01:33:45;;;;;;;25.15;17.05;;;;;;;6.16;100.00;102944.38;5033341;28;20442;-71
2022/11/12 01:36:11;;;;;;;24.98;16.77;;;;;;;6.19;100.00;102938.69;5030924;28;20042;-71
2022/11/12 01:38:38;;;;;;;22.70;16.70;;;;;;;6.16;100.00;102938.97;5014126;28;20037;-71
2022/11/12 01:41:06;;;;;;;22.25;16.40;;;;;;;6.13;100.00;102935.72;5023006;28;20162;-71
2022/11/12 01:43:31;;;;;;;24.98;16.45;;;;;;;6.10;100.00;102936.88;5033779;28;20036;-71
2022/11/12 01:46:00;;;;;;;23.80;17.02;;;;;;;6.04;100.00;102932.06;5033993;28;20104;-71
2022/11/12 01:48:30;;;;;;;23.77;16.63;;;;;;;5.98;100.00;102930.81;5033622;28;20032;-71
2022/11/12 01:50:56;;;;;;;25.02;16.85;;;;;;;6.01;100.00;102929.69;5029338;28;20501;-70
2022/11/12 01:53:26;;;;;;;21.58;16.45;;;;;;;5.96;100.00;102934.59;5012546;28;20033;-71
2022/11/12 01:55:53;;;;;;;23.35;16.27;;;;;;;5.96;100.00;102934.59;5012785;28;20350;-71
2022/11/12 01:58:23;;;;;;;22.20;16.35;;;;;;;5.89;100.00;102925.38;5013995;28;20026;-71
2022/11/12 02:00:49;;;;;;;24.88;16.27;;;;;;;5.82;100.00;102925.97;5009808;28;20109;-71
2022/11/12 02:03:18;;;;;;;22.67;16.73;;;;;;;5.82;100.00;102927.81;5020983;28;20052;-71
2022/11/12 02:05:46;;;;;;;22.58;15.80;;;;;;;5.81;100.00;102929.66;5029604;28;20108;-71
2022/11/12 02:08:12;;;;;;;23.38;16.50;;;;;;;5.81;100.00;102934.16;5013608;28;20084;-71
2022/11/12 02:10:38;;;;;;;23.05;16.63;;;;;;;5.74;100.00;102927.69;5018953;28;20104;-70
2022/11/12 02:15:50;;;;;;;23.00;15.90;;;;;;;5.71;100.00;102923.44;5020342;28;20052;-71
2022/11/12 02:18:15;;;;;;;20.63;15.20;;;;;;;5.69;100.00;102920.03;5012434;28;20030;-71
2022/11/12 02:20:41;;;;;;;23.48;16.60;;;;;;;5.69;100.00;102928.09;5018219;28;20026;-71
2022/11/12 02:23:07;;;;;;;21.65;16.40;;;;;;;5.65;100.00;102940.13;5033269;28;20072;-71
2022/11/12 02:25:33;;;;;;;23.00;16.33;;;;;;;5.59;100.00;102936.16;5031661;28;20483;-71
2022/11/12 02:28:00;;;;;;;22.92;16.42;;;;;;;5.55;100.00;102928.53;5033174;28;20519;-70
2022/11/12 02:30:38;;;;;;;23.83;16.58;;;;;;;5.59;100.00;102932.63;5020972;28;20034;-71
2022/11/12 02:33:03;;;;;;;21.95;16.17;;;;;;;5.63;100.00;102931.34;5012661;28;20052;-71
2022/11/12 02:35:29;;;;;;;25.40;17.08;;;;;;;5.60;100.00;102931.63;5011770;28;20018;-71
2022/11/12 02:37:55;;;;;;;22.45;15.85;;;;;;;5.59;100.00;102921.88;5013300;28;20030;-70
2022/11/12 02:40:21;;;;;;;26.00;16.45;;;;;;;5.60;100.00;102932.50;5012241;28;20033;-71
2022/11/12 02:42:46;;;;;;;24.73;16.90;;;;;;;5.56;100.00;102924.84;5012693;28;20048;-71
2022/11/12 02:45:12;;;;;;;25.08;18.08;;;;;;;5.51;100.00;102927.97;5014956;28;20465;-71
2022/11/12 02:47:37;;;;;;;24.50;17.35;;;;;;;5.53;100.00;102917.09;5032561;28;20029;-70
2022/11/12 02:50:04;;;;;;;24.42;17.13;;;;;;;5.53;100.00;102919.75;5029757;28;20028;-71
2022/11/12 02:52:29;;;;;;;24.92;17.20;;;;;;;5.50;100.00;102910.97;5030542;28;20033;-71
2022/11/12 02:54:54;;;;;;;21.83;15.93;;;;;;;5.52;100.00;102908.16;5047767;28;20421;-71
2022/11/12 02:57:20;;;;;;;23.63;17.15;;;;;;;5.55;100.00;102907.03;5032974;28;20120;-71
2022/11/12 02:59:45;;;;;;;26.52;16.65;;;;;;;5.53;100.00;102909.03;5043859;28;20072;-71
2022/11/12 03:02:10;;;;;;;23.40;15.60;;;;;;;5.52;100.00;102908.16;5010545;28;20061;-71
2022/11/12 03:04:35;;;;;;;24.00;15.73;;;;;;;5.48;100.00;102907.59;5012702;28;20214;-71
2022/11/12 03:07:01;;;;;;;21.20;15.32;;;;;;;5.47;100.00;102911.25;5012865;28;20061;-71
2022/11/12 03:09:26;;;;;;;21.33;15.55;;;;;;;5.44;100.00;102908.03;5015575;28;20112;-71
2022/11/12 03:11:51;;;;;;;22.88;14.95;;;;;;;5.40;100.00;102901.22;5032266;28;20026;-71
2022/11/12 03:14:17;;;;;;;21.45;15.43;;;;;;;5.39;100.00;102903.06;5031204;28;20445;-70
2022/11/12 03:16:42;;;;;;;22.40;15.10;;;;;;;5.41;100.00;102911.00;5032308;28;20025;-71
2022/11/12 03:19:07;;;;;;;20.42;15.15;;;;;;;5.37;100.00;102909.56;5031443;28;20104;-71
2022/11/12 03:21:32;;;;;;;21.05;15.18;;;;;;;5.34;100.00;102916.06;5032261;28;20032;-71
2022/11/12 03:23:58;;;;;;;21.95;14.65;;;;;;;5.41;100.00;102917.19;5032495;28;20036;-71
2022/11/12 03:26:23;;;;;;;22.27;14.50;;;;;;;5.36;100.00;102919.47;5032464;28;20051;-71
2022/11/12 03:28:50;;;;;;;23.10;14.13;;;;;;;5.32;100.00;102915.34;5029762;28;20033;-71
2022/11/12 03:31:15;;;;;;;18.10;14.00;;;;;;;5.29;100.00;102921.00;5031719;28;20476;-71
2022/11/12 03:33:40;;;;;;;21.13;14.35;;;;;;;5.26;100.00;102921.28;5036269;28;20167;-70
2022/11/12 03:36:06;;;;;;;18.38;13.57;;;;;;;5.28;100.00;102921.97;5036456;28;20449;-71
2022/11/12 03:38:31;;;;;;;19.02;13.93;;;;;;;5.27;100.00;102920.31;5034892;28;20082;-71
2022/11/12 03:40:57;;;;;;;18.88;13.82;;;;;;;5.26;100.00;102915.91;5036107;28;20021;-71
2022/11/12 03:43:22;;;;;;;18.27;12.55;;;;;;;5.30;100.00;102920.88;5028562;28;20044;-71
2022/11/12 03:45:47;;;;;;;19.20;13.18;;;;;;;5.28;100.00;102927.34;5016217;28;20088;-71
2022/11/12 03:48:12;;;;;;;18.00;13.02;;;;;;;5.26;100.00;102921.28;5015973;28;20454;-71
2022/11/12 03:50:38;;;;;;;16.48;12.00;;;;;;;5.29;100.00;102929.91;5016121;28;20026;-71
2022/11/12 03:53:03;;;;;;;19.13;12.15;;;;;;;5.28;100.00;102917.47;5016041;28;20068;-71
2022/11/12 03:55:29;;;;;;;16.63;11.98;;;;;;;5.28;100.00;102924.66;5015745;28;20045;-70
2022/11/12 03:57:55;;;;;;;17.55;12.25;;;;;;;5.30;100.00;102928.91;5015427;28;20060;-71
2022/11/12 04:00:22;;;;;;;16.55;10.98;;;;;;;5.28;100.00;102933.59;5014838;28;20527;-71
2022/11/12 04:02:48;;;;;;;18.15;11.82;;;;;;;5.26;100.00;102918.59;5015122;28;20049;-71
2022/11/12 04:10:48;;;;;;;17.73;11.32;;;;;;;5.35;100.00;102912.38;5015764;28;20053;-71
2022/11/12 04:13:29;;;;;;;18.23;11.00;;;;;;;5.33;100.00;102903.63;5030678;28;20033;-71
2022/11/12 04:21:55;;;;;;;14.40;10.70;;;;;;;5.35;100.00;102901.66;5035463;28;20117;-71
2022/11/12 04:27:27;;;;;;;14.75;9.95;;;;;;;5.26;100.00;102889.91;5027421;28;20047;-70
2022/11/12 04:32:39;;;;;;;13.90;9.90;;;;;;;5.29;100.00;102888.78;5035179;28;20068;-71
2022/11/12 04:35:07;;;;;;;15.35;10.02;;;;;;;5.36;100.00;102892.63;5035284;28;20365;-71
2022/11/12 04:37:43;;;;;;;15.05;9.90;;;;;;;5.31;100.00;102890.34;5034160;28;20152;-71
2022/11/12 04:45:45;;;;;;;12.80;9.13;;;;;;;5.13;100.00;102898.25;5034872;28;20036;-71
2022/11/12 04:48:10;;;;;;;14.20;10.23;;;;;;;5.16;100.00;102897.09;5023583;28;20377;-71
2022/11/12 04:50:36;;;;;;;13.43;9.38;;;;;;;5.09;100.00;102901.34;5015049;28;20079;-71
2022/11/12 04:53:02;;;;;;;16.70;10.32;;;;;;;5.07;100.00;102898.78;5014926;28;20025;-70
2022/11/12 04:55:27;;;;;;;15.20;10.15;;;;;;;5.01;100.00;102893.94;5015106;28;20026;-71
2022/11/12 04:57:52;;;;;;;13.05;9.55;;;;;;;4.99;100.00;102884.38;5029367;28;20049;-71
2022/11/12 05:00:18;;;;;;;14.05;9.85;;;;;;;5.01;100.00;102877.00;5032965;28;20113;-71
2022/11/12 05:02:43;;;;;;;13.30;9.75;;;;;;;5.03;100.00;102878.59;5032949;28;20032;-71
2022/11/12 05:05:08;;;;;;;12.38;9.35;;;;;;;5.01;100.00;102877.84;5034455;28;20029;-71
2022/11/12 05:07:33;;;;;;;12.80;9.52;;;;;;;4.97;100.00;102879.13;5033111;28;20029;-70
2022/11/12 05:09:59;;;;;;;12.98;9.18;;;;;;;4.92;100.00;102873.31;5033403;28;20029;-71
2022/11/12 05:12:24;;;;;;;16.73;9.57;;;;;;;4.94;100.00;102876.72;5019267;28;20032;-71
2022/11/12 05:14:49;;;;;;;14.05;9.73;;;;;;;4.94;100.00;102874.03;5013284;28;20029;-71
2022/11/12 05:17:15;;;;;;;15.13;10.02;;;;;;;4.93;100.00;102875.84;5016030;28;20025;-71
2022/11/12 05:19:40;;;;;;;13.15;9.85;;;;;;;4.87;100.00;102870.22;5033029;28;20061;-71
2022/11/12 05:22:05;;;;;;;13.48;9.20;;;;;;;4.89;100.00;102873.59;5034387;28;20449;-70
2022/11/12 05:24:37;;;;;;;13.57;9.25;;;;;;;4.87;100.00;102870.22;5033095;28;20032;-71
2022/11/12 05:27:04;;;;;;;13.15;9.52;;;;;;;4.89;100.00;102862.88;5031955;28;20057;-71
2022/11/12 05:29:29;;;;;;;14.18;9.02;;;;;;;4.84;100.00;102859.75;5013112;28;20026;-71
2022/11/12 05:31:55;;;;;;;12.60;9.50;;;;;;;4.83;100.00;102868.78;5014020;28;20457;-70
2022/11/12 05:34:20;;;;;;;13.85;9.55;;;;;;;4.87;100.00;102870.22;5013130;28;20037;-70
2022/11/12 05:36:46;;;;;;;11.57;9.07;;;;;;;4.86;100.00;102858.63;5014193;28;20075;-70
2022/11/12 05:39:11;;;;;;;13.13;9.48;;;;;;;4.84;100.00;102859.75;5031136;28;20029;-71
2022/11/12 05:41:36;;;;;;;14.38;9.57;;;;;;;4.84;100.00;102862.44;5032413;28;20037;-71
2022/11/12 05:44:02;;;;;;;10.88;8.68;;;;;;;4.82;100.00;102856.38;5034064;28;20021;-71
2022/11/12 05:46:27;;;;;;;13.18;9.05;;;;;;;4.81;100.00;102862.72;5013780;28;20029;-70
2022/11/12 05:48:53;;;;;;;16.05;9.00;;;;;;;4.81;100.00;102860.03;5013550;28;20033;-70
2022/11/12 05:51:18;;;;;;;12.57;9.27;;;;;;;4.83;100.00;102868.78;5014142;28;20037;-71
2022/11/12 05:53:43;;;;;;;15.10;9.55;;;;;;;4.82;100.00;102861.75;5012981;28;20108;-71
2022/11/12 05:56:09;;;;;;;12.30;8.75;;;;;;;4.75;100.00;102862.25;5013624;28;20033;-71
2022/11/12 05:58:35;;;;;;;13.88;9.43;;;;;;;4.76;100.00;102866.66;5025415;28;20544;-71
2022/11/12 06:01:01;;;;;;;12.65;8.73;;;;;;;4.75;100.00;102861.41;5022530;28;20041;-71
2022/11/12 06:03:26;;;;;;;11.25;8.50;;;;;;;4.71;100.00;102860.84;5014072;28;20478;-70
2022/11/12 06:05:52;;;;;;;13.10;8.98;;;;;;;4.75;100.00;102864.94;5013374;28;20057;-70
2022/11/12 06:08:17;;;;;;;12.85;9.02;;;;;;;4.76;100.00;102853.25;5013791;28;20026;-71
2022/11/12 06:10:47;;;;;;;14.43;9.35;;;;;;;4.77;100.00;102860.31;5016150;28;20079;-71
2022/11/12 06:13:12;;;;;;;11.70;9.00;;;;;;;4.72;100.00;102862.53;5032718;28;20064;-70
2022/11/12 06:15:38;;;;;;;13.57;9.10;;;;;;;4.74;100.00;102865.94;5026486;28;20072;-70
2022/11/12 06:18:03;;;;;;;11.13;8.45;;;;;;;4.71;100.00;102866.22;5013343;28;20036;-71
2022/11/12 06:20:28;;;;;;;11.38;8.68;;;;;;;4.70;100.00;102866.34;5012959;28;20361;-70
2022/11/12 06:22:56;;;;;;;11.98;8.90;;;;;;;4.71;100.00;102863.53;5013328;28;20029;-70
2022/11/12 06:25:21;;;;;;;11.38;8.40;;;;;;;4.63;100.00;102874.09;5011956;28;20481;-70
2022/11/12 06:27:46;;;;;;;16.05;8.82;;;;;;;4.60;100.00;102880.59;5012998;28;20033;-70
2022/11/12 06:30:12;;;;;;;14.05;8.48;;;;;;;4.61;100.00;102876.06;5012879;28;20017;-71
2022/11/12 06:32:37;;;;;;;12.05;8.38;;;;;;;4.57;100.00;102877.31;5012643;28;20483;-71
2022/11/12 06:35:03;;;;;;;12.15;8.73;;;;;;;4.54;100.00;102872.22;5012888;28;20053;-71
2022/11/12 06:37:28;;;;;;;13.95;9.00;;;;;;;4.59;100.00;102878.88;5012054;28;20025;-71
2022/11/12 06:39:53;;;;;;;11.82;9.10;;;;;;;4.57;100.00;102882.66;5011653;28;20442;-71
2022/11/12 06:42:19;;;;;;;12.38;8.80;;;;;;;4.59;100.00;102870.00;5012451;28;20030;-70
2022/11/12 06:44:44;;;;;;;13.30;8.30;;;;;;;4.57;100.00;102870.09;5012930;28;20022;-71
2022/11/12 06:47:10;;;;;;;15.27;10.02;;;;;;;4.61;100.00;102881.44;5025491;28;20029;-71
2022/11/12 06:49:35;;;;;;;13.23;9.30;;;;;;;4.59;100.00;102880.72;5032817;28;20027;-70
2022/11/12 06:52:00;;;;;;;15.15;9.95;;;;;;;4.60;100.00;102882.41;5031567;28;20033;-70
2022/11/12 06:54:25;;;;;;;11.60;8.38;;;;;;;4.61;100.00;102886.78;5032516;28;20087;-70
2022/11/12 06:56:51;;;;;;;13.90;8.77;;;;;;;4.54;100.00;102890.97;5031252;28;20022;-71
2022/11/12 06:59:17;;;;;;;11.80;8.73;;;;;;;4.54;100.00;102890.97;5032749;28;20183;-71
2022/11/12 07:01:42;;;;;;;14.27;9.15;;;;;;;4.53;100.00;102891.97;5026013;28;20021;-70
2022/11/12 07:04:07;;;;;;;12.05;9.05;;;;;;;4.54;100.00;102893.66;5032419;28;20025;-71
2022/11/12 07:06:33;;;;;;;13.63;8.82;;;;;;;4.59;100.00;102886.09;5032827;28;20033;-70
2022/11/12 07:08:58;;;;;;;12.52;9.10;;;;;;;4.60;100.00;102885.94;5032156;28;20518;-70
2022/11/12 07:11:24;;;;;;;15.00;9.35;;;;;;;4.63;100.00;102878.59;5031018;28;20044;-70
2022/11/12 07:13:49;;;;;;;12.07;8.48;;;;;;;4.64;100.00;102888.34;5032312;28;20021;-70
2022/11/12 07:16:17;;;;;;;12.23;9.43;;;;;;;4.70;100.00;102890.50;5027545;28;20021;-70
2022/11/12 07:18:43;;;;;;;14.60;9.57;;;;;;;4.71;100.00;102887.69;5032252;28;20021;-70
2022/11/12 07:21:11;;;;;;;14.45;8.75;;;;;;;4.75;100.00;102881.03;5025861;28;20449;-70
2022/11/12 07:23:37;;;;;;;14.52;8.98;;;;;;;4.78;100.00;102886.13;5014893;28;20038;-70
2022/11/12 07:26:05;;;;;;;11.93;9.02;;;;;;;4.80;100.00;102885.97;5012294;28;20088;-70
2022/11/12 07:28:30;;;;;;;12.40;8.80;;;;;;;4.83;100.00;102887.56;5012714;28;20462;-71
2022/11/12 07:30:57;;;;;;;15.95;9.48;;;;;;;4.87;100.00;102880.94;5012339;28;20064;-71
2022/11/12 07:33:23;;;;;;;16.95;9.85;;;;;;;4.85;100.00;102882.91;5020370;28;20029;-71
2022/11/12 07:35:55;;;;;;;17.02;9.55;;;;;;;4.88;100.00;102893.38;5032152;28;20025;-71
2022/11/12 07:38:20;;;;;;;13.70;9.60;;;;;;;4.91;100.00;102893.94;5031425;28;20025;-70
2022/11/12 07:40:46;;;;;;;15.50;9.98;;;;;;;4.96;100.00;102896.22;5031963;28;20487;-71
2022/11/12 07:43:11;;;;;;;16.85;9.77;;;;;;;4.99;100.00;102898.63;5031330;28;20029;-71
2022/11/12 07:45:36;;;;;;;18.88;12.52;;;;;;;4.99;100.00;102898.63;5031059;28;20449;-71
2022/11/12 07:48:02;;;;;;;17.92;11.85;;;;;;;5.07;100.00;102893.44;5031786;28;20373;-80
2022/11/12 07:50:27;;;;;;;20.95;12.63;;;;;;;5.12;100.00;102903.75;5031928;28;20049;-70
2022/11/12 07:52:52;;;;;;;18.15;11.45;;;;;;;5.19;100.00;102912.06;5027973;28;20025;-71
2022/11/12 07:55:17;;;;;;;15.25;10.30;;;;;;;5.22;100.00;102901.06;5032480;28;20025;-71
2022/11/12 07:57:43;;;;;;;18.77;10.77;;;;;;;5.28;100.00;102895.13;5030700;28;20342;-72
2022/11/12 08:00:11;;;;;;;18.20;10.25;;;;;;;5.33;100.00;102909.00;5030969;28;20433;-71
2022/11/12 08:02:36;;;;;;;15.65;10.73;;;;;;;5.37;100.00;102907.72;5018554;28;20086;-71
2022/11/12 08:05:01;;;;;;;14.25;10.13;;;;;;;5.41;100.00;102911.81;5012404;28;20064;-71
2022/11/12 08:07:27;;;;;;;14.05;9.90;;;;;;;5.43;100.00;102915.22;5012614;28;20037;-71
2022/11/12 08:09:52;;;;;;;16.27;9.90;;;;;;;5.45;100.00;102910.56;5012193;28;20284;-71
2022/11/12 08:12:17;;;;;;;18.15;10.32;;;;;;;5.51;100.00;102911.84;5012326;28;20033;-71
2022/11/12 08:14:42;;;;;;;14.93;10.00;;;;;;;5.55;100.00;102920.47;5030819;28;20463;-72
2022/11/12 08:17:08;;;;;;;16.00;9.50;;;;;;;5.60;100.00;102912.81;5031382;28;20032;-71
2022/11/12 08:19:33;;;;;;;16.73;9.98;;;;;;;5.64;100.00;102927.66;5034337;28;20032;-71
2022/11/12 08:21:58;;;;;;;14.07;9.48;;;;;;;5.72;100.00;102927.78;5035005;28;20111;-71
2022/11/12 08:24:23;;;;;;;15.50;9.85;;;;;;;5.74;100.00;102930.38;5017782;28;20033;-72
2022/11/12 08:26:49;;;;;;;14.07;9.52;;;;;;;5.75;100.00;102926.69;5016072;28;20151;-71
2022/11/12 08:29:14;;;;;;;14.32;9.77;;;;;;;5.82;100.00;102931.34;5021553;28;20033;-71
2022/11/12 08:31:39;;;;;;;14.07;9.38;;;;;;;5.89;100.00;102930.75;5033611;28;20100;-71
2022/11/12 08:34:11;;;;;;;14.45;9.43;;;;;;;5.91;100.00;102923.44;5025295;28;20112;-71
2022/11/12 08:36:37;;;;;;;16.95;10.57;;;;;;;5.99;100.00;102926.25;5034638;28;20029;-72
2022/11/12 08:39:03;;;;;;;17.25;9.80;;;;;;;6.01;100.00;102927.00;5033452;28;20116;-72
2022/11/12 08:41:28;;;;;;;16.50;9.77;;;;;;;6.08;100.00;102929.94;5033418;28;20112;-72
2022/11/12 08:43:53;;;;;;;18.80;10.00;;;;;;;6.15;100.00;102923.00;5027080;28;20374;-71
2022/11/12 08:46:18;;;;;;;13.55;9.82;;;;;;;6.21;100.00;102934.00;5014714;28;20026;-72
2022/11/12 08:48:44;;;;;;;18.10;9.30;;;;;;;6.29;100.00;102932.44;5015087;28;20033;-72
2022/11/12 08:51:09;;;;;;;15.55;9.95;;;;;;;6.36;100.00;102933.56;5034300;28;20021;-72
2022/11/12 08:53:34;;;;;;;15.98;10.27;;;;;;;6.38;100.00;102931.56;5034442;28;20022;-72
2022/11/12 08:56:00;;;;;;;18.23;10.35;;;;;;;6.47;100.00;102935.22;5032978;28;20025;-72
2022/11/12 08:58:26;;;;;;;13.18;9.85;;;;;;;6.50;100.00;102925.00;5028190;28;20473;-71
2022/11/12 09:00:52;;;;;;;16.45;10.40;;;;;;;6.62;100.00;102930.22;5031334;28;20061;-72
2022/11/12 09:03:20;;;;;;;15.57;9.73;;;;;;;6.66;100.00;102931.63;5034334;28;20112;-71
2022/11/12 09:05:46;;;;;;;16.70;9.63;;;;;;;6.78;100.00;102926.88;5010158;28;20405;-71
2022/11/12 09:08:16;;;;;;;15.50;10.30;;;;;;;6.84;100.00;102923.59;5033653;28;20022;-75
2022/11/12 09:10:42;;;;;;;16.80;10.05;;;;;;;6.94;100.00;102931.63;5032248;28;20059;-71
2022/11/12 09:13:08;;;;;;;16.30;9.50;;;;;;;7.01;100.00;102924.66;5028231;28;20455;-72
2022/11/12 09:15:33;;;;;;;17.15;10.43;;;;;;;7.09;100.00;102932.81;5014284;28;20369;-71
2022/11/12 09:18:01;;;;;;;17.85;9.63;;;;;;;7.13;100.00;102923.44;5014167;28;20091;-71
2022/11/12 09:20:27;;;;;;;17.50;9.85;;;;;;;7.21;100.00;102928.91;5027983;28;20044;-71
2022/11/12 09:22:56;;;;;;;12.27;9.35;;;;;;;7.31;100.00;102928.00;5018033;28;20034;-71
2022/11/12 09:25:22;;;;;;;15.02;10.48;;;;;;;7.39;100.00;102930.78;5014141;28;20148;-71
2022/11/12 09:27:47;;;;;;;16.45;10.40;;;;;;;7.48;100.00;102932.56;5022106;28;20104;-72
2022/11/12 09:30:13;;;;;;;15.20;10.45;;;;;;;7.57;100.00;102928.94;5024510;28;20033;-71
2022/11/12 09:32:38;;;;;;;20.20;11.68;;;;;;;7.64;100.00;102929.19;5033948;28;20038;-71
2022/11/12 09:35:04;;;;;;;15.52;10.38;;;;;;;7.70;100.00;102927.72;5033824;28;20026;-71
2022/11/12 09:37:30;;;;;;;19.20;10.43;;;;;;;7.74;100.00;102929.94;5031060;28;20021;-71
2022/11/12 09:39:55;;;;;;;16.13;9.85;;;;;;;7.78;100.00;102936.72;5032182;28;20021;-71
2022/11/12 09:42:21;;;;;;;13.70;9.65;;;;;;;7.86;100.00;102930.53;5033846;28;20021;-71
2022/11/12 09:44:57;;;;;;;13.43;9.38;;;;;;;7.92;100.00;102927.22;5022950;28;20033;-71
2022/11/12 09:47:31;;;;;;;13.27;9.63;;;;;;;8.00;100.00;102934.53;5029893;28;20017;-74
2022/11/12 09:50:21;;;;;;;12.75;9.65;;;;;;;8.07;100.00;102921.28;5031875;28;20547;-72
2022/11/12 09:52:51;;;;;;;13.80;9.48;;;;;;;8.16;100.00;102923.03;5029632;28;20037;-72
2022/11/12 09:55:24;;;;;;;12.63;9.30;;;;;;;8.24;100.00;102927.63;5033562;28;20416;-73
2022/11/12 09:57:50;;;;;;;13.82;9.35;;;;;;;8.31;100.00;102929.53;5031029;28;20029;-73
2022/11/12 10:00:19;;;;;;;13.10;8.88;;;;;;;8.40;100.00;102929.59;5033770;28;20105;-73
2022/11/12 10:02:56;;;;;;;13.93;9.05;;;;;;;8.48;100.00;102937.75;5014134;28;20040;-73
2022/11/12 10:05:32;;;;;;;12.52;8.65;;;;;;;8.54;100.00;102931.72;5013625;28;20029;-73
2022/11/12 10:08:29;;;;;;;13.70;9.05;;;;;;;8.61;100.00;102921.16;5012889;28;20026;-73
2022/11/12 10:11:05;;;;;;;16.20;8.63;;;;;;;8.66;100.00;102924.19;5019903;28;20457;-73
2022/11/12 10:13:48;;;;;;;12.15;8.32;;;;;;;8.74;100.00;102918.84;5033530;28;20457;-72
2022/11/12 10:16:51;;;;;;;12.93;8.45;;;;;;;8.81;100.00;102916.34;5032975;28;20540;-73
2022/11/12 10:19:54;;;;;;;11.60;8.75;;;;;;;8.91;100.00;102922.47;5027126;28;20071;-72
2022/11/12 10:22:39;;;;;;;10.77;7.90;;;;;;;8.99;100.00;102911.66;5033295;28;20025;-72
2022/11/12 10:25:14;;;;;;;13.43;8.35;;;;;;;9.08;100.00;102911.72;5029319;28;20061;-72
2022/11/12 10:27:41;;;;;;;12.50;8.30;;;;;;;9.12;100.00;102916.63;5019912;28;20034;-72
2022/11/12 10:30:17;;;;;;;11.45;8.98;;;;;;;9.22;100.00;102908.34;5026338;28;20025;-73
2022/11/12 10:32:45;;;;;;;11.80;8.02;;;;;;;9.26;100.00;102908.91;5032825;28;20041;-71
2022/11/12 10:35:14;;;;;;;10.73;7.93;;;;;;;9.34;100.00;102912.44;5032623;28;20507;-72
2022/11/12 10:38:03;;;;;;;14.27;8.65;;;;;;;9.45;100.00;102913.13;5013170;28;20032;-73
2022/11/12 10:40:36;;;;;;;10.73;7.65;;;;;;;9.52;100.00;102912.28;5012521;28;20030;-73
2022/11/12 10:43:20;;;;;;;9.65;7.28;;;;;;;9.56;100.00;102912.81;5012824;28;20045;-72
2022/11/12 10:45:48;;;;;;;9.73;7.93;;;;;;;9.65;100.00;102906.41;5029361;28;20034;-71
2022/11/12 10:48:30;;;;;;;10.60;8.05;;;;;;;9.69;100.00;102910.47;5032340;28;20464;-74
2022/11/12 10:50:56;;;;;;;11.90;8.35;;;;;;;9.82;100.00;102901.00;5032675;28;20021;-72
2022/11/12 10:53:31;;;;;;;12.15;8.75;;;;;;;9.82;100.00;102899.13;5032850;28;20461;-72
2022/11/12 10:56:02;;;;;;;13.25;8.40;;;;;;;9.90;100.00;102900.97;5030917;28;20037;-72
2022/11/12 10:58:28;;;;;;;15.40;9.10;;;;;;;9.96;100.00;102904.88;5032383;28;20021;-72
2022/11/12 11:00:57;;;;;;;11.40;8.68;;;;;;;10.02;100.00;102893.38;5027975;28;20028;-72
2022/11/12 11:03:26;;;;;;;11.02;8.65;;;;;;;10.06;100.00;102887.44;5031435;28;20029;-72
2022/11/12 11:05:58;;;;;;;12.02;8.57;;;;;;;10.09;100.00;102881.69;5021805;28;20118;-78
2022/11/12 11:09:07;;;;;;;11.43;8.05;;;;;;;10.19;100.00;102876.09;5023719;28;20079;-75
2022/11/12 11:11:32;;;;;;;11.23;8.55;;;;;;;10.26;100.00;102879.78;5020239;28;20112;-72
2022/11/12 11:14:20;;;;;;;10.57;8.85;;;;;;;10.35;100.00;102883.34;5032464;28;20112;-77
2022/11/12 11:16:55;;;;;;;10.88;8.25;;;;;;;10.36;97.39;102890.47;5031962;28;20036;-80
2022/11/12 11:19:21;;;;;;;12.82;9.07;;;;;;;10.50;98.86;102885.34;5032980;28;20451;-73
2022/11/12 11:21:49;;;;;;;11.73;8.40;;;;;;;10.57;96.77;102880.94;5025775;28;20113;-72
2022/11/12 11:25:01;;;;;;;12.80;8.32;;;;;;;10.59;96.47;102885.13;5019673;28;20053;-71
2022/11/12 11:28:04;;;;;;;12.77;7.88;;;;;;;10.62;95.42;102878.53;4997222;28;20113;-72
2022/11/12 11:30:29;;;;;;;9.65;7.75;;;;;;;10.66;93.92;102876.31;5028007;28;20472;-72
2022/11/12 11:33:39;;;;;;;10.25;7.88;;;;;;;10.72;98.74;102886.44;5032413;28;20119;-72
2022/11/12 11:36:24;;;;;;;11.20;8.00;;;;;;;10.79;89.60;102885.56;5026301;28;20382;-71
2022/11/12 11:39:18;;;;;;;10.82;7.63;;;;;;;10.88;87.75;102882.81;5016080;28;20025;-71
2022/11/12 11:41:55;;;;;;;9.45;6.70;;;;;;;10.88;87.00;102872.81;5018126;28;20022;-71
2022/11/12 11:44:58;;;;;;;8.32;6.53;;;;;;;10.95;90.44;102867.53;5013847;28;20045;-71